Time;durP1;ratioP1;P1;durP2;ratioP2;P2;SDS_P1;SDS_P2;PMS_P1;PMS_P2;Temp;Humidity;BMP_temperature;BMP_pressure;BME280_temperature;BME280_humidity;BME280_pressure;Samples;Min_cycle;Max_cycle;Signal;HPM_P1;HPM_P2
2023/04/27 05:02:33;;;;;;;;;7.00;7.00;;;;;14.68;58.12;12505.22;4973258;28;45340;-85
2023/04/27 05:04:59;;;;;;;;;8.67;8.67;;;;;14.29;58.27;12159.81;4975306;28;45422;-85
2023/04/27 05:07:24;;;;;;;;;11.00;9.50;;;;;14.39;58.29;12162.19;4975438;28;45388;-85
2023/04/27 05:09:50;;;;;;;;;12.33;8.00;;;;;14.68;58.21;11833.47;4975141;28;46164;-85
2023/04/27 05:12:15;;;;;;;;;12.67;9.33;;;;;14.58;58.02;11831.13;4975087;28;45853;-85
2023/04/27 05:14:40;;;;;;;;;6.67;5.00;;;;;14.34;58.23;11154.22;4974960;28;46054;-85
2023/04/27 05:17:06;;;;;;;;;9.33;8.67;;;;;14.53;58.15;10823.06;4975152;28;45404;-84
2023/04/27 05:19:32;;;;;;;;;9.67;9.33;;;;;14.65;58.72;10154.41;4974659;28;46275;-85
2023/04/27 05:21:57;;;;;;;;;9.00;6.67;;;;;14.61;58.51;10489.03;4974509;28;57832;-85
2023/04/27 05:24:24;;;;;;;;;9.00;8.33;;;;;14.57;58.59;10152.78;4975380;28;45657;-85
2023/04/27 05:26:49;;;;;;;;;9.00;9.00;;;;;14.30;58.84;9811.56;4978564;28;45464;-84
2023/04/27 05:29:14;;;;;;;;;10.67;9.00;;;;;14.32;58.75;9811.88;4977514;28;56751;-85
2023/04/27 05:31:40;;;;;;;;;7.33;7.33;;;;;14.58;58.71;9817.31;4977854;28;45521;-85
2023/04/27 05:34:07;;;;;;;;;7.33;7.33;;;;;14.33;58.62;9812.09;4978281;28;45399;-85
2023/04/27 05:36:32;;;;;;;;;7.00;7.00;;;;;14.47;58.73;9479.59;4978404;28;45523;-85
2023/04/27 05:38:57;;;;;;;;;8.67;7.33;;;;;14.30;58.75;9476.19;4972413;28;47278;-85
2023/04/27 05:41:23;;;;;;;;;6.00;5.67;;;;;14.49;58.64;8809.16;4958229;28;45778;-85
2023/04/27 05:43:48;;;;;;;;;8.00;8.00;;;;;14.28;58.82;8805.00;4960276;28;45438;-85
2023/04/27 05:46:14;;;;;;;;;12.67;10.67;;;;;14.54;58.70;8474.72;4977954;28;45698;-83
2023/04/27 05:48:40;;;;;;;;;10.67;9.33;;;;;14.54;58.98;8139.31;4976500;28;46758;-85
2023/04/27 05:51:05;;;;;;;;;7.33;7.33;;;;;14.51;59.40;7468.00;4977872;28;45467;-85
2023/04/27 05:53:32;;;;;;;;;7.67;7.67;;;;;14.19;59.14;7462.47;4977715;28;45530;-85
2023/04/27 05:55:58;;;;;;;;;8.67;8.67;;;;;14.26;59.33;7128.56;4978078;28;45437;-85
2023/04/27 05:58:23;;;;;;;;;6.33;5.67;;;;;14.55;59.23;7133.38;4976508;28;46651;-85
2023/04/27 06:00:49;;;;;;;;;9.67;7.00;;;;;14.40;59.48;6460.53;4975801;28;45501;-85
2023/04/27 06:03:14;;;;;;;;;7.67;6.33;;;;;14.59;59.27;6128.16;4977809;28;45442;-85
2023/04/27 06:05:40;;;;;;;;;8.00;8.00;;;;;14.44;59.21;6125.94;4978340;28;45594;-85
2023/04/27 06:08:05;;;;;;;;;0.67;0.00;;;;;14.43;59.26;5790.66;4976065;28;46112;-84
2023/04/27 06:10:31;;;;;;;;;7.00;6.33;;;;;14.65;59.07;5793.81;4977000;28;45531;-85
2023/04/27 06:12:56;;;;;;;;;8.33;7.33;;;;;14.43;59.03;5790.66;4976021;28;45875;-85
2023/04/27 06:18:52;;;;;;;;;5.00;5.00;;;;;13.37;59.07;5440.91;4935733;28;45530;-85
2023/04/27 06:21:20;;;;;;;;;2.67;2.00;;;;;13.26;59.00;5105.03;4934764;28;45528;-85
2023/04/27 06:23:45;;;;;;;;;8.00;8.00;;;;;13.40;58.88;5441.34;4935992;28;45656;-85
2023/04/27 06:26:13;;;;;;;;;6.33;5.00;;;;;13.44;58.87;5441.91;4936215;28;45462;-84
2023/04/27 06:28:38;;;;;;;;;7.00;6.00;;;;;14.38;58.62;5119.81;4935410;28;46490;-85
2023/04/27 06:31:07;;;;;;;;;4.67;3.67;;;;;14.91;58.74;5126.97;4935465;28;45388;-86
2023/04/27 06:33:33;;;;;;;;;7.67;6.67;;;;;14.95;58.49;4792.19;4919831;28;45418;-84
2023/04/27 06:36:20;;;;;;;;;9.67;7.33;;;;;14.09;58.76;4781.13;4919379;28;45772;-85
2023/04/27 06:38:48;;;;;;;;;4.33;4.33;;;;;15.07;58.80;4793.69;4934547;28;46176;-86
2023/04/27 06:41:13;;;;;;;;;2.00;2.00;;;;;14.51;58.75;4786.47;4935422;28;45630;-85
2023/04/27 06:43:38;;;;;;;;;4.00;4.00;;;;;15.17;58.44;4795.00;4935265;28;45588;-85
2023/04/27 06:46:04;;;;;;;;;4.00;4.00;;;;;15.20;58.34;4795.34;4936114;28;45430;-84
2023/04/27 06:48:30;;;;;;;;;4.00;4.00;;;;;15.23;58.62;4795.66;4934926;28;45828;-85
2023/04/27 06:50:58;;;;;;;;;8.00;6.67;;;;;15.25;58.49;4795.91;4935776;28;45818;-85
2023/04/27 06:53:23;;;;;;;;;3.33;3.33;;;;;15.27;58.19;4796.25;4934628;28;45650;-85
2023/04/27 06:55:49;;;;;;;;;5.33;5.33;;;;;15.13;57.97;4794.47;4963007;28;45908;-84
2023/04/27 06:58:15;;;;;;;;;5.00;5.00;;;;;15.33;58.29;4797.03;4971389;28;46937;-84
2023/04/27 07:00:40;;;;;;;;;5.33;3.67;;;;;15.37;58.26;4797.50;4965683;28;45541;-84
2023/04/27 07:03:05;;;;;;;;;4.67;4.67;;;;;15.27;58.25;4796.25;4968882;28;45859;-84
2023/04/27 07:05:32;;;;;;;;;9.67;6.33;;;;;15.45;58.31;4462.97;4977003;28;45400;-85
2023/04/27 07:08:04;;;;;;;;;6.67;5.00;;;;;15.31;58.14;4796.72;4976584;28;47268;-84
2023/04/27 07:10:30;;;;;;;;;5.33;5.33;;;;;15.37;57.90;4797.50;4958626;28;45401;-84
2023/04/27 07:12:55;;;;;;;;;5.00;5.00;;;;;15.44;58.00;4798.34;4976508;28;45637;-84
2023/04/27 07:15:21;;;;;;;;;5.00;5.00;;;;;15.33;57.78;4797.03;4976755;28;45553;-84
2023/04/27 07:17:52;;;;;;;;;8.00;5.33;;;;;15.35;57.85;4797.31;4976470;28;47483;-84
2023/04/27 07:20:18;;;;;;;;;4.67;4.33;;;;;15.46;57.72;5134.28;4975376;28;45562;-84
2023/04/27 07:22:44;;;;;;;;;6.67;6.67;;;;;15.39;57.68;5133.38;4976339;28;45654;-84
2023/04/27 07:25:10;;;;;;;;;3.00;3.00;;;;;15.58;57.64;5135.84;4977060;28;45443;-84
2023/04/27 07:27:35;;;;;;;;;6.33;4.00;;;;;15.51;57.42;5134.97;4975671;28;46729;-84
2023/04/27 07:30:01;;;;;;;;;10.00;6.33;;;;;15.76;57.17;5474.09;4975863;28;45478;-84
2023/04/27 07:32:29;;;;;;;;;4.33;4.33;;;;;15.78;57.07;5474.31;4976394;28;45624;-84
2023/04/27 07:34:55;;;;;;;;;7.67;4.33;;;;;15.79;56.81;6818.06;4976840;28;45483;-84
2023/04/27 07:37:22;;;;;;;;;4.00;4.00;;;;;15.82;57.12;6482.53;4957766;28;46284;-84
2023/04/27 07:39:49;;;;;;;;;4.00;4.00;;;;;15.79;56.44;7154.00;4956825;28;45457;-84
2023/04/27 07:42:15;;;;;;;;;6.00;6.00;;;;;15.87;56.35;7491.22;4956183;28;45781;-84
2023/04/27 07:44:41;;;;;;;;;4.33;3.67;;;;;15.72;56.62;7488.75;4956949;28;45452;-84
2023/04/27 07:47:06;;;;;;;;;4.33;3.00;;;;;15.77;56.54;7153.66;4956283;28;47364;-84
2023/04/27 07:49:33;;;;;;;;;4.00;2.00;;;;;16.04;56.86;6486.03;4968717;28;45499;-84
2023/04/27 07:51:58;;;;;;;;;6.33;4.00;;;;;15.85;56.41;6818.88;4976180;28;45789;-84
2023/04/27 07:54:26;;;;;;;;;5.00;3.00;;;;;16.09;56.13;6486.66;4962456;28;45435;-84
2023/04/27 07:56:52;;;;;;;;;4.00;4.00;;;;;16.04;56.21;7158.19;4975385;28;46313;-84
2023/04/27 07:59:17;;;;;;;;;3.33;3.33;;;;;16.28;56.11;7162.09;4970004;28;45417;-85
2023/04/27 08:01:43;;;;;;;;;3.00;3.00;;;;;16.32;56.02;6826.44;4971653;28;45466;-85
2023/04/27 08:04:08;;;;;;;;;3.33;3.33;;;;;15.99;56.20;6821.25;4975400;28;45585;-93
2023/04/27 08:07:12;;;;;;;;;4.00;2.33;;;;;14.99;56.35;6805.22;5089919;22;46684;-87
2023/04/27 08:09:37;;;;;;;;;5.00;5.00;;;;;15.94;55.66;6820.34;4887625;29;45801;-86
2023/04/27 08:12:03;;;;;;;;;4.00;4.00;;;;;15.91;56.12;6483.97;4894311;29;45614;-87
2023/04/27 08:17:27;;;;;;;;;4.33;4.33;;;;;16.19;55.95;7160.66;5067181;23;45529;-88
2023/04/27 08:44:56;;;;;;;;;7.67;6.00;;;;;15.89;53.86;10180.88;4968096;28;45985;-91
2023/04/27 08:47:34;;;;;;;;;3.67;3.67;;;;;16.63;54.19;9187.00;4963178;28;45570;-92
2023/04/27 08:58:38;;;;;;;;;9.33;6.67;;;;;17.57;53.18;9542.78;5306380;22;45977;-90
2023/04/27 09:01:35;;;;;;;;;5.00;2.67;;;;;18.32;53.09;7533.53;4975414;28;45571;-90
2023/04/27 09:04:45;;;;;;;;;3.00;3.00;;;;;18.71;52.24;9566.22;4958975;28;46496;-91
2023/04/27 09:07:22;;;;;;;;;4.00;4.00;;;;;19.00;52.91;7882.88;5827712;23;45432;-92
2023/04/27 09:13:20;;;;;;;;;4.67;4.67;;;;;19.47;50.52;13641.81;4943962;23;46053;-92
2023/04/27 10:18:04;;;;;;;;;;;;;;;;;;;;;
2023/04/27 10:25:40;;;;;;;;;1.00;1.00;;;;;27.08;39.29;69452.34;6082550;23;45927;-89
2023/04/27 11:12:42;;;;;;;;;0.00;0.00;;;;;28.81;33.08;75854.34;5696665;22;45405;-87
2023/04/27 11:18:34;;;;;;;;;2.25;1.50;;;;;29.30;32.94;75100.00;5596252;23;45496;-87
2023/04/27 11:27:01;;;;;;;;;0.00;0.00;;;;;27.23;33.42;74235.63;5638012;23;45722;-86
2023/04/27 11:29:38;;;;;;;;;1.00;1.00;;;;;27.23;34.42;74091.53;5023138;28;45626;-86
2023/04/27 11:35:38;;;;;;;;;2.00;2.00;;;;;26.71;32.84;72827.06;5035823;28;45376;-87
2023/04/27 11:38:04;;;;;;;;;1.25;1.25;;;;;26.04;35.14;73225.59;5486239;22;46100;-86
2023/04/27 11:40:39;;;;;;;;;;;;;;;;;;;;;
2023/04/27 11:49:56;;;;;;;;;2.75;2.75;;;;;24.43;35.92;72520.09;4927306;28;45482;-87
2023/04/27 11:52:38;;;;;;;;;1.00;1.00;;;;;24.15;36.29;72347.97;4918768;28;45631;-87
2023/04/27 11:55:14;;;;;;;;;1.00;1.00;;;;;23.84;35.90;72204.72;4998426;23;47461;-86
2023/04/27 11:58:47;;;;;;;;;2.00;1.00;;;;;24.14;36.27;72386.66;4999410;28;45516;-86
2023/04/27 12:01:24;;;;;;;;;0.25;0.25;;;;;23.62;36.63;72142.91;4894635;29;45555;-86
2023/04/27 12:03:52;;;;;;;;;1.00;1.00;;;;;24.03;36.83;72311.47;4880537;29;45603;-86
2023/04/27 12:06:53;;;;;;;;;1.00;1.00;;;;;23.46;36.52;72001.56;4896323;28;45683;-87
2023/04/27 12:09:21;;;;;;;;;3.00;1.00;;;;;23.95;36.75;72039.28;4896355;28;45624;-85
2023/04/27 12:11:53;;;;;;;;;1.00;1.00;;;;;24.16;36.95;72110.63;4896714;28;45794;-86
2023/04/27 12:14:19;;;;;;;;;2.00;1.50;;;;;22.96;37.65;71882.81;4896316;28;45523;-86
2023/04/27 12:16:44;;;;;;;;;0.75;0.75;;;;;22.88;37.26;71710.44;4880268;29;47054;-85
2023/04/27 12:19:09;;;;;;;;;1.75;1.75;;;;;22.82;37.74;71922.22;4896387;28;45524;-86
2023/04/27 12:22:05;;;;;;;;;1.00;1.00;;;;;23.03;37.21;71917.25;4896866;28;45549;-86
2023/04/27 12:25:14;;;;;;;;;2.00;0.00;;;;;23.67;37.50;71905.94;4895916;28;45762;-85
2023/04/27 12:28:07;;;;;;;;;1.00;1.00;;;;;23.94;38.57;72178.63;4896104;28;47281;-86
2023/04/27 12:30:36;;;;;;;;;2.00;2.00;;;;;23.88;38.71;72393.50;4896192;29;45414;-85
2023/04/27 12:33:08;;;;;;;;;1.25;1.25;;;;;23.44;38.21;72588.59;4896079;28;45499;-86
2023/04/27 12:35:42;;;;;;;;;1.00;1.00;;;;;24.46;37.84;72709.91;4900223;28;45383;-86
2023/04/27 12:38:08;;;;;;;;;2.00;2.00;;;;;24.35;38.06;72872.03;4989536;28;47091;-86
2023/04/27 12:40:40;;;;;;;;;0.75;0.75;;;;;24.54;37.39;73198.34;5038713;28;45399;-86
2023/04/27 12:43:28;;;;;;;;;2.00;2.00;;;;;24.64;36.93;73200.66;5038644;28;45428;-86
2023/04/27 12:45:57;;;;;;;;;1.00;1.00;;;;;25.14;37.35;73602.91;5040294;28;45484;-87
2023/04/27 12:51:05;;;;;;;;;3.75;1.25;;;;;26.94;36.39;73756.50;4230159;26;45702;-87
2023/04/27 12:53:46;;;;;;;;;3.00;2.00;;;;;25.90;34.92;73463.00;4978855;28;45594;-87
2023/04/27 12:56:15;;;;;;;;;1.75;1.75;;;;;27.00;35.32;73798.78;4979260;28;45639;-88
2023/04/27 12:58:45;;;;;;;;;1.00;1.00;;;;;26.27;35.09;73679.94;4983906;28;46382;-87
2023/04/27 13:01:38;;;;;;;;;4.25;3.00;;;;;26.95;34.88;73657.25;5004913;22;45623;-88
2023/04/27 13:49:56;;;;;;;;;0.75;0.75;;;;;22.57;38.46;71670.78;5076944;22;45395;-86
2023/04/27 13:52:27;;;;;;;;;0.75;0.75;;;;;22.29;38.42;71669.28;4977827;28;45492;-86
2023/04/27 14:05:06;;;;;;;;;2.00;1.00;;;;;22.05;39.15;71532.50;4951627;23;45604;-86
2023/04/27 14:11:56;;;;;;;;;1.00;1.00;;;;;22.89;39.53;71576.75;4973932;28;46486;-86
2023/04/27 14:14:37;;;;;;;;;0.00;0.00;;;;;22.28;39.99;71557.50;4974943;28;45459;-86
2023/04/27 14:17:15;;;;;;;;;0.00;0.00;;;;;22.27;40.03;71449.06;4975733;28;45451;-84
2023/04/27 14:19:46;;;;;;;;;2.00;2.00;;;;;22.09;40.23;71379.03;4975465;28;45524;-86
2023/04/27 14:25:04;;;;;;;;;0.50;0.50;;;;;21.12;40.62;71232.91;4975240;28;45623;-85
2023/04/27 14:27:36;;;;;;;;;0.75;0.75;;;;;20.89;40.78;71302.16;4975210;28;45521;-85
2023/04/27 14:30:01;;;;;;;;;0.00;0.00;;;;;21.12;40.80;71296.84;4976021;28;45315;-84
2023/04/27 14:32:27;;;;;;;;;1.00;1.00;;;;;21.70;40.90;71318.97;4975447;28;46272;-85
2023/04/27 14:34:56;;;;;;;;;0.00;0.00;;;;;21.66;40.95;71402.91;4975324;28;45551;-86
2023/04/27 14:37:40;;;;;;;;;1.00;1.00;;;;;20.89;41.25;71218.16;4975527;28;45418;-86
2023/04/27 14:40:20;;;;;;;;;0.00;0.00;;;;;21.74;41.71;71344.78;4975645;28;45595;-85
2023/04/27 14:42:46;;;;;;;;;2.00;2.00;;;;;21.46;42.66;71403.19;4974567;28;45555;-87
2023/04/27 14:45:56;;;;;;;;;1.00;1.00;;;;;20.56;42.12;71149.38;5006140;28;45495;-86
2023/04/27 14:48:22;;;;;;;;;0.25;0.25;;;;;21.58;43.01;71085.53;4975654;28;45552;-83
2023/04/27 14:50:47;;;;;;;;;0.00;0.00;;;;;21.83;43.29;71124.19;5037056;28;45828;-84
2023/04/27 14:53:14;;;;;;;;;1.50;0.25;;;;;21.15;43.83;70870.63;5036974;28;47101;-84
2023/04/27 14:55:42;;;;;;;;;0.00;0.00;;;;;21.83;43.93;70926.94;5036812;28;45787;-84
2023/04/27 14:58:07;;;;;;;;;0.00;0.00;;;;;21.69;44.48;70714.50;5036733;28;45483;-85
2023/04/27 15:00:35;;;;;;;;;0.50;0.50;;;;;21.65;44.01;70776.94;5037065;28;45481;-83
2023/04/27 15:03:03;;;;;;;;;1.00;1.00;;;;;21.93;45.23;70532.38;5036688;28;45486;-84
2023/04/27 15:05:29;;;;;;;;;0.50;0.50;;;;;21.88;45.62;70333.00;5035579;28;45491;-82
2023/04/27 15:07:54;;;;;;;;;0.50;0.50;;;;;21.75;44.90;70289.72;5036913;28;45368;-82
2023/04/27 15:10:20;;;;;;;;;0.00;0.00;;;;;21.68;44.97;70394.94;5036691;28;45439;-82
2023/04/27 15:12:45;;;;;;;;;1.00;1.00;;;;;21.80;44.92;70374.50;5036541;28;45861;-82
2023/04/27 15:15:11;;;;;;;;;1.00;1.00;;;;;21.72;44.30;70440.19;5036017;28;45476;-83
2023/04/27 15:17:37;;;;;;;;;0.00;0.00;;;;;21.79;44.69;70330.19;5036798;28;45426;-84
2023/04/27 15:20:04;;;;;;;;;1.00;1.00;;;;;21.81;44.57;70375.09;5036865;28;45528;-84
2023/04/27 15:22:30;;;;;;;;;0.00;0.00;;;;;21.81;44.65;70356.25;5035680;28;46577;-84
2023/04/27 15:24:55;;;;;;;;;0.00;0.00;;;;;21.81;45.90;69750.38;5035578;28;45419;-89
2023/04/27 15:27:21;;;;;;;;;0.00;0.00;;;;;21.82;45.27;69826.97;5036502;28;45380;-87
2023/04/27 15:29:46;;;;;;;;;0.00;0.00;;;;;21.81;45.61;69915.22;5035964;28;45527;-89
2023/04/27 15:32:11;;;;;;;;;0.00;0.00;;;;;21.60;45.22;69884.56;5035793;28;45452;-85
2023/04/27 15:34:37;;;;;;;;;0.00;0.00;;;;;21.81;46.00;69833.84;5036459;28;45351;-84
2023/04/27 15:37:02;;;;;;;;;0.00;0.00;;;;;21.80;45.60;69671.69;5036174;28;45468;-87
2023/04/27 15:39:28;;;;;;;;;0.25;0.25;;;;;21.78;45.85;69744.69;5036319;28;45475;-84
2023/04/27 15:41:54;;;;;;;;;0.00;0.00;;;;;21.41;46.11;69696.09;5036051;28;45400;-85
2023/04/27 15:44:20;;;;;;;;;0.75;0.75;;;;;21.75;45.37;69611.25;5036083;28;45443;-85
2023/04/27 15:46:45;;;;;;;;;1.50;1.00;;;;;21.36;45.32;69657.78;5039435;28;45763;-93
2023/04/27 15:49:11;;;;;;;;;1.00;1.00;;;;;21.67;45.43;69567.84;5038141;28;46143;-92
2023/04/27 15:51:37;;;;;;;;;0.25;0.25;;;;;21.71;45.78;69566.69;5038176;28;46241;-88
2023/04/27 15:54:02;;;;;;;;;2.00;0.00;;;;;21.69;46.22;69163.78;5036530;28;52786;-85
2023/04/27 15:56:27;;;;;;;;;0.00;0.00;;;;;21.55;46.39;68993.16;5036566;28;45514;-87
2023/04/27 15:58:53;;;;;;;;;1.50;1.50;;;;;21.62;47.04;68683.91;5018404;28;45471;-86
2023/04/27 16:01:18;;;;;;;;;2.00;2.00;;;;;21.17;47.57;67967.72;5035883;28;45881;-85
2023/04/27 16:03:44;;;;;;;;;1.50;1.00;;;;;21.37;47.53;67942.72;5035860;28;45459;-85
2023/04/27 16:06:09;;;;;;;;;0.75;0.75;;;;;21.32;47.61;67974.50;5035950;28;45433;-86
2023/04/27 16:08:35;;;;;;;;;0.50;0.50;;;;;21.52;47.17;67879.03;5035142;28;45664;-83
2023/04/27 16:11:00;;;;;;;;;1.00;1.00;;;;;21.48;47.93;67417.66;5035737;28;46212;-86
2023/04/27 16:13:27;;;;;;;;;1.00;0.75;;;;;21.22;47.63;67258.97;5035411;28;56118;-86
2023/04/27 16:15:52;;;;;;;;;1.00;1.00;;;;;21.38;48.10;67290.41;5036084;28;45410;-89
2023/04/27 16:18:18;;;;;;;;;3.00;1.50;;;;;21.06;48.46;66636.31;5036461;28;45435;-88
2023/04/27 16:20:43;;;;;;;;;3.00;2.00;;;;;21.28;49.36;65387.00;5036015;28;46351;-88
2023/04/27 16:23:08;;;;;;;;;1.00;1.00;;;;;21.23;48.89;64746.66;5035617;28;45544;-88
2023/04/27 16:25:34;;;;;;;;;2.00;1.00;;;;;21.00;48.46;65135.72;5035695;28;50946;-90
2023/04/27 16:27:59;;;;;;;;;2.00;0.25;;;;;21.10;49.69;63555.78;5036009;28;45735;-83
2023/04/27 16:30:25;;;;;;;;;2.00;1.00;;;;;20.98;49.94;62961.13;5036023;28;46288;-85
2023/04/27 16:32:51;;;;;;;;;1.25;1.25;;;;;21.05;49.37;62656.81;5093419;23;45489;-85
2023/04/27 16:35:16;;;;;;;;;2.00;2.00;;;;;21.09;49.12;62816.84;4987582;28;45445;-87
2023/04/27 16:37:42;;;;;;;;;1.00;1.00;;;;;20.97;49.26;62556.88;4995557;28;45474;-88
2023/04/27 16:40:07;;;;;;;;;2.50;2.50;;;;;21.10;50.25;61604.03;4996126;28;46123;-82
2023/04/27 16:42:33;;;;;;;;;2.50;1.00;;;;;20.65;50.37;61284.09;4995564;28;45828;-83
2023/04/27 16:45:01;;;;;;;;;2.00;2.00;;;;;20.83;49.45;61702.41;4978024;28;45874;-81
2023/04/27 16:47:27;;;;;;;;;1.00;1.00;;;;;20.92;50.33;60595.38;4995894;28;45368;-82
2023/04/27 16:49:52;;;;;;;;;1.00;1.00;;;;;20.96;49.85;60887.16;5010077;28;46345;-82
2023/04/27 16:52:18;;;;;;;;;1.25;1.25;;;;;20.94;50.44;60689.22;5014853;28;45367;-85
2023/04/27 16:54:44;;;;;;;;;1.25;1.25;;;;;20.63;50.99;59344.00;5015275;28;45474;-85
2023/04/27 16:57:09;;;;;;;;;2.00;1.00;;;;;20.51;50.90;56931.09;5015717;28;45402;-87
2023/04/27 16:59:35;;;;;;;;;1.75;1.75;;;;;20.78;52.24;50833.47;5015348;28;46460;-84
2023/04/27 17:02:00;;;;;;;;;1.00;1.00;;;;;20.74;51.96;53307.94;5015267;28;45502;-83
2023/04/27 17:04:26;;;;;;;;;4.00;3.00;;;;;20.54;54.50;35047.00;5015323;28;45574;-85
2023/04/27 17:06:51;;;;;;;;;1.67;1.67;;;;;19.85;55.25;25402.91;5015085;28;45450;-86
2023/04/27 17:09:16;;;;;;;;;1.00;1.00;;;;;20.51;55.32;22495.91;5015008;28;47094;-84
2023/04/27 17:11:42;;;;;;;;;1.00;1.00;;;;;20.40;53.73;28694.81;5009520;28;45384;-84
2023/04/27 17:14:07;;;;;;;;;2.75;1.00;;;;;20.39;56.03;14683.78;4995384;28;45884;-85
2023/04/27 17:16:32;;;;;;;;;1.00;1.00;;;;;20.11;55.39;17727.56;4995810;28;45427;-86
2023/04/27 17:18:58;;;;;;;;;3.00;3.00;;;;;20.03;56.99;9593.41;4994377;28;46182;-84
2023/04/27 17:21:25;;;;;;;;;1.00;1.00;;;;;19.95;55.07;13654.72;4998160;28;45405;-85
2023/04/27 17:23:57;;;;;;;;;3.00;3.00;;;;;20.00;56.25;11285.38;4999115;28;45641;-87
2023/04/27 17:26:22;;;;;;;;;1.50;1.50;;;;;20.10;57.06;7225.94;4998834;28;45457;-84
2023/04/27 17:28:48;;;;;;;;;4.33;3.00;;;;;20.07;56.87;8578.84;4998086;28;46285;-86
2023/04/27 17:31:16;;;;;;;;;3.67;2.00;;;;;20.06;58.69;-884.56;4998348;28;45500;-82
2023/04/27 17:33:42;;;;;;;;;1.00;1.00;;;;;19.74;57.39;2827.25;4998504;28;45437;-85
2023/04/27 17:36:08;;;;;;;;;0.00;0.00;;;;;20.01;57.05;2829.88;4998456;28;45517;-84
2023/04/27 17:38:33;;;;;;;;;3.00;3.00;;;;;19.80;58.30;126.84;4998301;28;46505;-84
2023/04/27 17:40:59;;;;;;;;;2.00;2.00;;;;;19.92;57.74;-210.06;4998582;28;45634;-84
2023/04/27 17:43:24;;;;;;;;;1.75;1.75;;;;;19.89;57.44;802.50;4998566;28;45527;-84
2023/04/27 17:45:49;;;;;;;;;1.00;1.00;;;;;19.55;57.49;462.81;4998684;28;45293;-87
2023/04/27 17:48:15;;;;;;;;;2.67;2.67;;;;;19.52;58.69;-2235.50;4998082;28;45377;-88
2023/04/27 17:53:56;;;;;;;;;1.00;1.00;;;;;19.32;58.87;-3583.78;5040817;22;45815;-87
2023/04/27 17:56:36;;;;;;;;;2.00;2.00;;;;;19.27;58.59;-3583.75;5026388;28;45641;-86
2023/04/27 17:59:02;;;;;;;;;1.00;1.00;;;;;18.56;58.99;-5265.66;4983435;28;45734;-88
2023/04/27 18:10:53;;;;;;;;;3.00;3.00;;;;;19.51;61.13;-12672.81;4928790;28;46783;-90
2023/04/27 18:13:19;;;;;;;;;1.50;1.50;;;;;18.86;61.18;-13334.84;4966045;23;45654;-89
2023/04/27 18:15:48;;;;;;;;;2.00;2.00;;;;;18.17;61.36;-12652.81;5048479;22;45585;-89
2023/04/27 18:18:20;;;;;;;;;1.50;1.50;;;;;18.93;62.02;-14343.44;5325156;22;46661;-93
2023/04/27 18:23:39;;;;;;;;;4.00;2.00;;;;;17.89;63.27;-17340.81;4936506;28;45562;-90
2023/04/27 18:26:04;;;;;;;;;2.00;2.00;;;;;18.15;63.42;-18016.78;4934460;28;45871;-93
2023/04/27 18:34:36;;;;;;;;;2.00;2.00;;;;;19.19;64.32;-18376.81;5200416;22;45523;-91
2023/04/27 18:37:07;;;;;;;;;2.75;1.50;;;;;18.32;64.46;-19695.97;5038642;28;45839;-91
2023/04/27 18:48:36;;;;;;;;;;;;;;;;;;;;;
2023/04/27 18:58:12;;;;;;;;;5.33;3.33;;;;;18.97;68.09;-19714.91;5752027;22;45535;-90
2023/04/27 19:00:37;;;;;;;;;2.00;2.00;;;;;18.45;67.69;-19701.28;5036605;28;45711;-90
2023/04/27 19:05:44;;;;;;;;;2.25;1.75;;;;;17.57;68.40;-19678.28;5769726;22;46691;-90
2023/04/27 19:10:46;;;;;;;;;0.75;0.75;;;;;18.05;68.14;-19690.84;5016741;22;67910;-90
2023/04/27 19:16:36;;;;;;;;;2.00;2.00;;;;;17.70;68.27;-19681.91;5067956;22;45458;-91
2023/04/27 19:19:17;;;;;;;;;2.00;2.00;;;;;17.70;68.67;-19681.75;4999017;28;45668;-90
2023/04/27 19:21:42;;;;;;;;;2.00;2.00;;;;;18.04;69.09;-19690.59;4994949;28;45534;-91
2023/04/27 19:27:40;;;;;;;;;4.00;3.00;;;;;18.28;69.03;-19697.00;4954233;28;46361;-89
2023/04/27 19:30:18;;;;;;;;;2.00;2.00;;;;;18.80;69.28;-19710.38;4964966;28;45789;-90
2023/04/27 19:51:34;;;;;;;;;1.00;1.00;;;;;17.33;71.88;-19672.00;5000128;28;45414;-89
2023/04/27 20:09:39;;;;;;;;;3.00;1.00;;;;;17.40;72.79;-19674.00;3897450;23;46087;-90
2023/04/27 20:12:33;;;;;;;;;1.75;1.75;;;;;17.19;72.57;-19668.38;5006880;28;45422;-89
2023/04/27 20:15:08;;;;;;;;;1.00;1.00;;;;;17.99;75.44;-19689.25;4946384;28;46374;-89
2023/04/27 20:17:58;;;;;;;;;1.00;1.00;;;;;18.55;74.02;-19703.97;4932739;28;46010;-88
2023/04/27 20:23:47;;;;;;;;;0.50;0.50;;;;;18.32;75.24;-19697.94;4941431;28;45556;-88
2023/04/27 20:59:36;;;;;;;;;0.00;0.00;;;;;18.41;77.57;-19700.34;5017855;22;46072;-93
2023/04/27 21:05:32;;;;;;;;;1.00;1.00;;;;;17.03;76.90;-19664.22;4920545;28;45537;-87
2023/04/27 21:07:58;;;;;;;;;0.00;0.00;;;;;17.88;75.95;-19686.56;4928659;28;45632;-83
2023/04/27 21:10:26;;;;;;;;;1.00;1.00;;;;;17.09;76.50;-19665.97;4928397;28;45487;-83
2023/04/27 21:13:14;;;;;;;;;1.00;0.25;;;;;17.21;76.14;-19669.06;4921472;28;45483;-83
2023/04/27 21:15:39;;;;;;;;;0.00;0.00;;;;;18.38;76.92;-19699.56;4922851;28;45651;-83
2023/04/27 21:18:05;;;;;;;;;1.00;1.00;;;;;18.23;77.10;-19695.53;4957847;28;45449;-83
2023/04/27 21:20:31;;;;;;;;;0.00;0.00;;;;;18.33;76.80;-19698.34;4936327;28;46180;-83
2023/04/27 21:22:56;;;;;;;;;1.00;1.00;;;;;18.38;76.67;-19699.41;4935571;28;45536;-83
2023/04/27 21:25:22;;;;;;;;;0.75;0.00;;;;;18.29;77.28;-19697.28;4933320;28;45347;-83
2023/04/27 21:27:47;;;;;;;;;0.25;0.25;;;;;18.39;77.58;-19699.69;4923747;28;45546;-83
2023/04/27 21:30:12;;;;;;;;;0.00;0.00;;;;;18.18;77.13;-19694.34;4926381;28;50664;-84
2023/04/27 21:32:38;;;;;;;;;0.00;0.00;;;;;18.36;77.06;-19699.00;4930158;28;45426;-84
2023/04/27 21:35:05;;;;;;;;;0.00;0.00;;;;;18.36;76.72;-19699.00;4920746;28;45459;-83
2023/04/27 21:37:30;;;;;;;;;1.00;1.00;;;;;18.37;76.61;-19699.16;4932510;28;45615;-83
2023/04/27 21:39:55;;;;;;;;;0.50;0.50;;;;;18.31;76.38;-19697.69;4924615;28;45906;-84
2023/04/27 21:42:24;;;;;;;;;1.00;1.00;;;;;18.31;77.57;-19697.81;4924667;28;58200;-83
2023/04/27 21:44:49;;;;;;;;;0.00;0.00;;;;;18.16;77.26;-19693.66;4931715;28;45415;-83
2023/04/27 21:47:14;;;;;;;;;1.00;1.00;;;;;18.37;76.65;-19699.16;4920742;28;45402;-83
2023/04/27 21:49:40;;;;;;;;;0.25;0.25;;;;;18.15;77.13;-19693.53;4930668;28;46994;-83
2023/04/27 21:52:05;;;;;;;;;0.00;0.00;;;;;18.08;76.59;-19691.66;4926264;28;45372;-84
2023/04/27 21:54:30;;;;;;;;;0.00;0.00;;;;;18.35;76.73;-19698.88;4923371;28;45685;-84
2023/04/27 21:56:56;;;;;;;;;0.25;0.25;;;;;18.07;77.28;-19691.41;4932867;28;45543;-85
2023/04/27 21:59:21;;;;;;;;;0.75;0.75;;;;;18.36;77.43;-19699.00;5002752;28;58963;-84
2023/04/27 22:01:46;;;;;;;;;1.00;1.00;;;;;18.34;77.57;-19698.63;4962196;28;45490;-84
2023/04/27 22:04:12;;;;;;;;;0.00;0.00;;;;;18.34;77.42;-19698.47;4976762;28;45386;-84
2023/04/27 22:06:37;;;;;;;;;0.00;0.00;;;;;18.22;79.22;-19695.28;4990352;28;45889;-84
2023/04/27 22:09:02;;;;;;;;;1.00;1.00;;;;;18.11;77.90;-19692.59;4949153;28;49282;-84
2023/04/27 22:11:28;;;;;;;;;0.00;0.00;;;;;18.03;78.00;-19690.31;5000848;28;45465;-84
2023/04/27 22:13:53;;;;;;;;;2.25;1.75;;;;;17.95;78.00;-19688.31;4966613;28;45376;-84
2023/04/27 22:16:18;;;;;;;;;0.25;0.25;;;;;17.99;77.39;-19689.38;4972397;28;51705;-84
2023/04/27 22:18:44;;;;;;;;;1.50;1.00;;;;;17.98;77.87;-19688.97;4994547;28;50793;-84
2023/04/27 22:21:11;;;;;;;;;2.00;1.00;;;;;18.31;77.69;-19697.69;4949807;28;45753;-84
2023/04/27 22:23:36;;;;;;;;;1.00;1.00;;;;;18.00;77.50;-19689.53;4977228;28;45491;-84
2023/04/27 22:26:01;;;;;;;;;0.25;0.25;;;;;18.30;77.82;-19697.53;4982247;28;45466;-83
2023/04/27 22:28:27;;;;;;;;;0.00;0.00;;;;;18.06;77.81;-19691.13;4985553;28;45442;-84
2023/04/27 22:30:54;;;;;;;;;1.00;1.00;;;;;18.31;78.05;-19697.81;4997622;28;52900;-84
2023/04/27 22:33:19;;;;;;;;;0.75;0.75;;;;;18.15;77.97;-19693.53;5002230;28;45470;-83
2023/04/27 22:38:20;;;;;;;;;2.00;2.00;;;;;17.02;78.00;-19663.97;5161280;23;45340;-87
2023/04/27 22:40:45;;;;;;;;;0.00;0.00;;;;;18.32;77.90;-19697.94;5056922;28;45509;-88
2023/04/27 22:43:10;;;;;;;;;1.00;1.00;;;;;18.31;78.13;-19697.69;5057337;28;45614;-92
2023/04/27 22:45:36;;;;;;;;;0.00;0.00;;;;;18.27;78.12;-19696.59;5039809;28;45735;-91
2023/04/27 22:48:01;;;;;;;;;1.00;1.00;;;;;18.31;78.73;-19697.81;5057688;28;46647;-91
2023/04/27 22:50:27;;;;;;;;;2.00;0.50;;;;;18.32;79.05;-19697.94;5037436;28;45624;-91
2023/04/27 22:52:53;;;;;;;;;0.50;0.50;;;;;18.21;79.19;-19695.00;5037324;28;45529;-90